Time;durP1;ratioP1;P1;durP2;ratioP2;P2;SDS_P1;SDS_P2;PMS_P1;PMS_P2;Temp;Humidity;BMP_temperature;BMP_pressure;BME280_temperature;BME280_humidity;BME280_pressure;Samples;Min_cycle;Max_cycle;Signal;HPM_P1;HPM_P2
2021/10/08 00:01:27;;;;;;;4.33;3.90;;;11.10;99.90;;;;;;4954651;28;20463;-54
2021/10/08 00:03:53;;;;;;;5.32;4.32;;;11.20;99.90;;;;;;4959315;28;20505;-54
2021/10/08 00:06:19;;;;;;;5.90;4.95;;;11.30;99.90;;;;;;4952885;29;20667;-54
2021/10/08 00:08:45;;;;;;;5.60;4.47;;;11.10;99.90;;;;;;4952024;29;20260;-53
2021/10/08 00:11:11;;;;;;;4.73;4.33;;;11.10;99.90;;;;;;4946306;28;20573;-54
2021/10/08 00:13:37;;;;;;;4.47;4.13;;;11.10;99.90;;;;;;4954067;28;20972;-54
2021/10/08 00:16:05;;;;;;;5.40;4.78;;;10.90;99.90;;;;;;4949013;29;20193;-53
2021/10/08 00:18:32;;;;;;;5.05;4.55;;;11.00;99.90;;;;;;4953236;29;20256;-53
2021/10/08 00:20:58;;;;;;;5.60;5.00;;;11.20;99.90;;;;;;4951391;28;20201;-54
2021/10/08 00:23:24;;;;;;;4.70;4.30;;;11.10;99.90;;;;;;4945954;28;20209;-54
2021/10/08 00:25:50;;;;;;;4.53;4.23;;;11.10;99.90;;;;;;4954178;28;20248;-53
2021/10/08 00:28:15;;;;;;;5.27;4.80;;;11.20;99.90;;;;;;4953067;28;20347;-53
2021/10/08 00:30:41;;;;;;;6.20;4.20;;;11.00;99.90;;;;;;4947774;28;20555;-54
2021/10/08 00:33:08;;;;;;;4.53;4.17;;;11.10;99.90;;;;;;4953577;29;20189;-54
2021/10/08 00:35:34;;;;;;;4.75;4.35;;;11.20;99.90;;;;;;4953644;29;20193;-54
2021/10/08 00:38:03;;;;;;;6.30;5.27;;;10.80;99.90;;;;;;4953026;28;20225;-54
2021/10/08 00:40:31;;;;;;;5.00;4.65;;;11.10;99.90;;;;;;4951514;28;20209;-54
2021/10/08 00:42:57;;;;;;;4.55;4.15;;;10.70;99.90;;;;;;4953682;28;20236;-54
2021/10/08 00:45:23;;;;;;;5.27;4.70;;;10.60;99.90;;;;;;4951253;29;20663;-54
2021/10/08 00:48:00;;;;;;;5.53;4.90;;;10.90;99.90;;;;;;4953289;29;20436;-54
2021/10/08 00:50:27;;;;;;;4.28;3.88;;;10.80;99.90;;;;;;4953613;28;20220;-55
2021/10/08 00:52:53;;;;;;;4.82;4.43;;;10.80;99.90;;;;;;4949957;29;20238;-54
2021/10/08 00:55:19;;;;;;;4.90;4.43;;;10.70;99.90;;;;;;4953641;28;20251;-54
2021/10/08 00:57:46;;;;;;;5.57;4.30;;;10.80;99.90;;;;;;4956684;28;20643;-54
2021/10/08 01:00:16;;;;;;;5.10;4.60;;;10.50;99.90;;;;;;4950348;29;20852;-54
2021/10/08 01:02:43;;;;;;;5.35;4.85;;;10.40;99.90;;;;;;4953037;28;20213;-54
2021/10/08 01:05:10;;;;;;;7.28;5.88;;;10.60;99.90;;;;;;4953481;28;20193;-54
2021/10/08 01:07:35;;;;;;;5.35;4.85;;;10.50;99.90;;;;;;4950827;28;20189;-54
2021/10/08 01:10:02;;;;;;;9.67;8.67;;;10.40;99.90;;;;;;4952302;28;20185;-55
2021/10/08 01:12:27;;;;;;;11.45;8.48;;;10.30;99.90;;;;;;4952889;29;20452;-55
2021/10/08 01:14:53;;;;;;;7.87;5.80;;;10.40;99.90;;;;;;4947407;29;20201;-53
2021/10/08 01:17:20;;;;;;;8.70;5.40;;;10.30;99.90;;;;;;4953241;28;20243;-54
2021/10/08 01:19:46;;;;;;;7.90;7.07;;;10.20;99.90;;;;;;4952265;28;20208;-54
2021/10/08 01:22:13;;;;;;;7.68;5.22;;;10.40;99.90;;;;;;4946305;28;20220;-54
2021/10/08 01:24:39;;;;;;;7.65;5.40;;;10.20;99.90;;;;;;4952798;28;20196;-54
2021/10/08 01:27:06;;;;;;;5.65;5.15;;;10.10;99.90;;;;;;4951883;28;20189;-54
2021/10/08 01:29:34;;;;;;;6.55;5.22;;;10.10;99.90;;;;;;4948608;28;20205;-54
2021/10/08 01:32:00;;;;;;;6.15;5.55;;;10.10;99.90;;;;;;4952519;29;20197;-53
2021/10/08 01:34:26;;;;;;;5.70;5.18;;;10.10;99.90;;;;;;4952753;28;20264;-53
2021/10/08 01:36:52;;;;;;;6.50;5.90;;;9.90;99.90;;;;;;4952346;28;20344;-54
2021/10/08 01:39:17;;;;;;;7.00;6.30;;;10.20;99.90;;;;;;4948936;28;20205;-53
2021/10/08 01:41:43;;;;;;;5.90;5.30;;;9.90;99.90;;;;;;4947095;29;20567;-54
2021/10/08 01:44:09;;;;;;;5.60;4.90;;;10.00;99.90;;;;;;4951551;28;20195;-54
2021/10/08 01:46:35;;;;;;;7.00;5.77;;;10.00;99.90;;;;;;4961133;28;20189;-53
2021/10/08 01:49:00;;;;;;;5.57;5.03;;;9.80;99.90;;;;;;4951950;28;20209;-54
2021/10/08 01:51:26;;;;;;;7.33;5.40;;;10.00;99.90;;;;;;4952218;29;20189;-54
2021/10/08 01:53:52;;;;;;;6.70;6.00;;;10.00;99.90;;;;;;4948596;28;20566;-54
2021/10/08 01:56:18;;;;;;;6.90;5.70;;;9.80;99.90;;;;;;4944748;29;20441;-53
2021/10/08 01:58:43;;;;;;;6.47;5.70;;;9.80;99.90;;;;;;4951422;28;20580;-54
2021/10/08 02:01:09;;;;;;;5.40;4.90;;;9.50;99.90;;;;;;4948854;29;20426;-53
2021/10/08 02:03:35;;;;;;;7.60;6.57;;;10.10;99.90;;;;;;4950165;28;20217;-54
2021/10/08 02:06:00;;;;;;;5.77;4.67;;;9.90;99.90;;;;;;4946307;29;20252;-54
2021/10/08 02:08:26;;;;;;;5.63;5.13;;;9.70;99.90;;;;;;4951867;28;20212;-53
2021/10/08 02:10:52;;;;;;;4.90;4.50;;;9.80;99.90;;;;;;4949911;28;20289;-53
2021/10/08 02:13:19;;;;;;;5.43;4.97;;;9.70;99.90;;;;;;4952078;29;20543;-53
2021/10/08 02:15:46;;;;;;;5.75;5.13;;;9.50;99.90;;;;;;4949208;28;20452;-54
2021/10/08 02:18:12;;;;;;;5.97;5.38;;;9.70;99.90;;;;;;4951477;28;20801;-53
2021/10/08 02:20:37;;;;;;;5.80;5.00;;;9.60;99.90;;;;;;4950938;28;20195;-55
2021/10/08 02:23:03;;;;;;;6.77;5.20;;;9.60;99.90;;;;;;4950540;28;20836;-53
2021/10/08 02:25:29;;;;;;;7.63;5.97;;;9.30;99.90;;;;;;4951267;29;20271;-53
2021/10/08 02:27:54;;;;;;;6.30;5.77;;;9.40;99.90;;;;;;4952067;28;20209;-54
2021/10/08 02:30:20;;;;;;;5.60;5.10;;;9.40;99.90;;;;;;4950618;28;20185;-54
2021/10/08 02:32:46;;;;;;;5.40;5.00;;;9.40;99.90;;;;;;4951956;28;20193;-54
2021/10/08 02:35:12;;;;;;;5.57;4.97;;;9.50;99.90;;;;;;4952493;28;20631;-54
2021/10/08 02:37:37;;;;;;;8.63;5.82;;;9.60;99.90;;;;;;4949721;28;20232;-55
2021/10/08 02:40:05;;;;;;;5.87;5.37;;;9.60;99.90;;;;;;4949837;29;20588;-55
2021/10/08 02:42:31;;;;;;;5.93;5.10;;;9.40;99.90;;;;;;4955416;28;20211;-54
2021/10/08 02:44:56;;;;;;;5.27;4.77;;;9.40;99.90;;;;;;4954617;28;20177;-55
2021/10/08 02:47:22;;;;;;;5.33;4.63;;;9.40;99.90;;;;;;4955216;28;20979;-54
2021/10/08 02:49:48;;;;;;;6.87;5.63;;;9.60;99.90;;;;;;4955879;28;20721;-54
2021/10/08 02:52:13;;;;;;;5.87;5.37;;;9.60;99.90;;;;;;4956059;29;20548;-54
2021/10/08 02:54:39;;;;;;;5.83;5.33;;;9.30;99.90;;;;;;4953156;28;20193;-54
2021/10/08 02:57:05;;;;;;;5.63;5.10;;;9.20;99.90;;;;;;4947486;29;20572;-54
2021/10/08 02:59:30;;;;;;;6.63;5.23;;;9.40;99.90;;;;;;4952118;28;20256;-54
2021/10/08 03:01:56;;;;;;;5.80;5.17;;;9.50;99.90;;;;;;4955094;28;20296;-54
2021/10/08 03:04:22;;;;;;;5.67;5.17;;;9.60;99.90;;;;;;4955264;29;20196;-54
2021/10/08 03:06:48;;;;;;;5.40;4.90;;;9.20;99.90;;;;;;4955409;29;20436;-54
2021/10/08 03:09:13;;;;;;;5.10;4.60;;;9.50;99.90;;;;;;4951721;28;20295;-54
2021/10/08 03:11:39;;;;;;;5.67;4.83;;;9.30;99.90;;;;;;4952728;28;20199;-53
2021/10/08 03:14:05;;;;;;;5.63;5.03;;;9.40;99.90;;;;;;4950147;29;20185;-54
2021/10/08 03:16:31;;;;;;;5.43;4.83;;;9.20;99.90;;;;;;4959404;28;20185;-54
2021/10/08 03:18:56;;;;;;;6.00;5.50;;;8.60;99.90;;;;;;4955534;28;20240;-54
2021/10/08 03:21:22;;;;;;;6.00;5.40;;;9.00;99.90;;;;;;4956299;28;20597;-54
2021/10/08 03:23:48;;;;;;;6.47;5.87;;;9.00;99.90;;;;;;4950418;28;20217;-54
2021/10/08 03:26:13;;;;;;;5.70;5.17;;;8.90;99.90;;;;;;4951737;29;20604;-54
2021/10/08 03:28:39;;;;;;;7.10;5.40;;;9.00;99.90;;;;;;4945655;29;20288;-54
2021/10/08 03:31:05;;;;;;;7.10;5.53;;;9.20;99.90;;;;;;4948642;29;20194;-54
2021/10/08 03:33:31;;;;;;;6.90;5.10;;;9.00;99.90;;;;;;4954724;28;20415;-54
2021/10/08 03:35:56;;;;;;;7.43;5.40;;;8.90;99.90;;;;;;4954863;28;20201;-54
2021/10/08 03:38:22;;;;;;;5.57;4.93;;;9.10;99.90;;;;;;4953349;28;20583;-54
2021/10/08 03:40:58;;;;;;;7.50;5.60;;;9.10;99.90;;;;;;4950904;29;20662;-54
2021/10/08 03:43:24;;;;;;;6.85;6.25;;;9.00;99.90;;;;;;4946963;29;20208;-54
2021/10/08 03:45:52;;;;;;;6.50;5.53;;;8.90;99.90;;;;;;4944834;28;20709;-54
2021/10/08 03:48:34;;;;;;;6.38;5.78;;;8.70;99.90;;;;;;4954737;28;20236;-54
2021/10/08 03:51:01;;;;;;;6.47;5.75;;;8.90;99.90;;;;;;4943439;29;20650;-54
2021/10/08 03:53:27;;;;;;;5.85;5.35;;;9.00;99.90;;;;;;4954850;29;20671;-54
2021/10/08 03:55:53;;;;;;;7.10;6.50;;;8.80;99.90;;;;;;4952471;28;20243;-53
2021/10/08 03:58:18;;;;;;;6.83;5.90;;;8.80;99.90;;;;;;4953700;28;20442;-54
2021/10/08 04:00:44;;;;;;;6.03;5.37;;;8.90;99.90;;;;;;4950121;28;20690;-53
2021/10/08 04:03:10;;;;;;;6.23;5.63;;;9.10;99.90;;;;;;4953939;28;20801;-53
2021/10/08 04:05:35;;;;;;;8.37;6.80;;;9.10;99.90;;;;;;4951069;29;20210;-53
2021/10/08 04:08:01;;;;;;;7.00;6.30;;;8.80;99.90;;;;;;4950294;29;20201;-54
2021/10/08 04:10:27;;;;;;;6.13;5.53;;;8.80;99.90;;;;;;4954068;28;20188;-53
2021/10/08 04:12:53;;;;;;;5.82;5.22;;;8.70;99.90;;;;;;4953901;29;20197;-54
2021/10/08 04:15:19;;;;;;;6.53;5.93;;;8.50;99.90;;;;;;4951497;28;20562;-54
2021/10/08 04:17:44;;;;;;;6.87;6.07;;;8.90;99.90;;;;;;4958075;28;20477;-54
2021/10/08 04:20:10;;;;;;;9.53;6.50;;;8.40;99.90;;;;;;4948487;28;20424;-54
2021/10/08 04:22:36;;;;;;;6.40;5.80;;;8.70;99.90;;;;;;4951519;29;20685;-54
2021/10/08 04:25:02;;;;;;;7.10;6.07;;;8.80;99.90;;;;;;4946425;29;20595;-54
2021/10/08 04:27:28;;;;;;;7.70;6.30;;;8.50;99.90;;;;;;4953542;28;20177;-54
2021/10/08 04:29:54;;;;;;;7.10;6.40;;;8.60;99.90;;;;;;4952103;29;20561;-54
2021/10/08 04:32:20;;;;;;;7.25;6.47;;;8.60;99.90;;;;;;4953119;29;20188;-54
2021/10/08 04:34:46;;;;;;;6.53;5.93;;;8.80;99.90;;;;;;4953105;28;20185;-54
2021/10/08 04:37:11;;;;;;;6.93;5.90;;;8.50;99.90;;;;;;4953044;28;20463;-54
2021/10/08 04:39:37;;;;;;;7.37;6.63;;;8.80;99.90;;;;;;4949940;29;20205;-53
2021/10/08 04:42:03;;;;;;;7.13;6.43;;;8.60;99.90;;;;;;4953115;28;20266;-54
2021/10/08 04:44:32;;;;;;;8.87;6.97;;;8.60;99.90;;;;;;4952460;28;20189;-55
2021/10/08 04:46:58;;;;;;;7.70;6.65;;;8.60;99.90;;;;;;4957999;28;20186;-55
2021/10/08 04:49:24;;;;;;;6.43;5.82;;;8.60;99.90;;;;;;4953158;28;20772;-53
2021/10/08 04:51:49;;;;;;;8.47;6.03;;;8.70;99.90;;;;;;4952971;29;20224;-53
2021/10/08 04:54:15;;;;;;;7.20;6.50;;;8.60;99.90;;;;;;4951929;28;20203;-54
2021/10/08 04:56:41;;;;;;;5.70;5.20;;;8.80;99.90;;;;;;4952862;29;20185;-53
2021/10/08 04:59:06;;;;;;;6.53;5.93;;;8.70;99.90;;;;;;4951911;28;20216;-54
2021/10/08 05:01:32;;;;;;;6.80;6.13;;;8.80;99.90;;;;;;4948416;28;20275;-53
2021/10/08 05:03:58;;;;;;;7.93;6.87;;;8.60;99.90;;;;;;4951574;29;20279;-54
2021/10/08 05:06:23;;;;;;;6.53;5.93;;;8.80;99.90;;;;;;4952664;28;20236;-52
2021/10/08 05:08:49;;;;;;;7.50;6.20;;;8.70;99.90;;;;;;4953404;28;20473;-54
2021/10/08 05:11:16;;;;;;;7.40;6.60;;;8.90;99.90;;;;;;4944781;28;20185;-53
2021/10/08 05:13:41;;;;;;;6.20;5.60;;;8.50;99.90;;;;;;4954734;28;20185;-54
2021/10/08 05:16:07;;;;;;;8.23;5.80;;;8.60;99.90;;;;;;4950115;28;20244;-53
2021/10/08 05:18:33;;;;;;;8.20;6.90;;;8.50;99.90;;;;;;4952854;28;20205;-54
2021/10/08 05:20:59;;;;;;;7.83;5.97;;;8.70;99.90;;;;;;4953672;28;20802;-54
2021/10/08 05:23:24;;;;;;;7.80;6.93;;;8.70;99.90;;;;;;4947932;29;20244;-54
2021/10/08 05:25:50;;;;;;;6.50;5.90;;;8.50;99.90;;;;;;4950260;28;20248;-54
2021/10/08 05:28:16;;;;;;;10.63;6.63;;;8.50;99.90;;;;;;4955008;28;20200;-54
2021/10/08 05:30:42;;;;;;;7.40;6.67;;;8.40;99.90;;;;;;4950811;28;20181;-54
2021/10/08 05:33:07;;;;;;;7.50;6.80;;;8.40;99.90;;;;;;4952330;29;20192;-53
2021/10/08 05:35:33;;;;;;;8.20;6.83;;;8.60;99.90;;;;;;4952099;28;20444;-54
2021/10/08 05:37:58;;;;;;;12.10;8.00;;;8.50;99.90;;;;;;4951384;28;20216;-59
2021/10/08 05:40:24;;;;;;;7.93;7.13;;;8.70;99.90;;;;;;4949984;28;20702;-57
2021/10/08 05:42:50;;;;;;;8.00;6.70;;;8.70;99.90;;;;;;4950190;28;20239;-58
2021/10/08 05:45:16;;;;;;;9.00;7.30;;;8.70;99.90;;;;;;4946008;28;20192;-57
2021/10/08 05:47:41;;;;;;;8.67;7.60;;;8.60;99.90;;;;;;4950089;28;20599;-58
2021/10/08 05:50:08;;;;;;;9.57;8.57;;;8.60;99.90;;;;;;4951596;28;20789;-59
2021/10/08 05:52:34;;;;;;;8.05;6.72;;;8.60;99.90;;;;;;4949604;28;20190;-59
2021/10/08 05:54:59;;;;;;;7.00;6.40;;;8.80;99.90;;;;;;4950030;28;20208;-58
2021/10/08 05:57:25;;;;;;;7.50;6.70;;;8.60;99.90;;;;;;4951189;28;20208;-58
2021/10/08 05:59:51;;;;;;;9.33;7.63;;;8.20;99.90;;;;;;4947719;28;20474;-58
2021/10/08 06:02:17;;;;;;;7.70;7.00;;;8.70;99.90;;;;;;4949195;28;20216;-53
2021/10/08 06:04:42;;;;;;;9.57;7.20;;;8.90;99.90;;;;;;4951249;28;20284;-53
2021/10/08 06:07:10;;;;;;;8.70;7.70;;;8.70;99.90;;;;;;4952685;28;20188;-54
2021/10/08 06:09:36;;;;;;;9.68;7.00;;;8.70;99.90;;;;;;4950560;28;20201;-53
2021/10/08 06:12:02;;;;;;;7.75;6.60;;;8.70;99.90;;;;;;4948308;28;20220;-53
2021/10/08 06:14:28;;;;;;;7.65;6.38;;;8.80;99.90;;;;;;4947427;28;20551;-54
2021/10/08 06:16:54;;;;;;;10.77;8.00;;;8.70;99.90;;;;;;4947214;28;20181;-53
2021/10/08 06:19:20;;;;;;;9.85;8.30;;;8.80;99.90;;;;;;4946637;28;20500;-54
2021/10/08 06:21:45;;;;;;;8.10;7.30;;;8.70;99.90;;;;;;4956372;28;20223;-53
2021/10/08 06:24:12;;;;;;;8.00;7.20;;;8.90;99.90;;;;;;4954768;28;20231;-54
2021/10/08 06:26:38;;;;;;;8.73;7.83;;;8.80;99.90;;;;;;4954927;28;20623;-52
2021/10/08 06:29:04;;;;;;;10.47;7.73;;;8.70;99.90;;;;;;4948332;28;20208;-55
2021/10/08 06:31:29;;;;;;;14.80;10.37;;;8.90;99.90;;;;;;4950221;29;20192;-54
2021/10/08 06:33:55;;;;;;;10.87;8.47;;;9.00;99.90;;;;;;4950354;28;20193;-52
2021/10/08 06:36:21;;;;;;;8.80;7.87;;;9.10;99.90;;;;;;4945678;29;20181;-52
2021/10/08 06:38:46;;;;;;;9.47;7.70;;;9.20;99.90;;;;;;4948469;28;20234;-54
2021/10/08 06:41:12;;;;;;;8.23;7.43;;;9.00;99.90;;;;;;4949225;28;20241;-57
2021/10/08 06:43:38;;;;;;;8.30;7.50;;;9.30;99.90;;;;;;4951575;28;20565;-55
2021/10/08 06:46:04;;;;;;;8.93;8.02;;;9.40;99.90;;;;;;4950569;28;20240;-54
2021/10/08 06:48:30;;;;;;;11.50;9.03;;;9.20;99.90;;;;;;4952281;28;20208;-54
2021/10/08 06:50:57;;;;;;;12.43;8.90;;;9.30;99.90;;;;;;4950829;29;20196;-54
2021/10/08 06:53:24;;;;;;;12.18;9.55;;;9.30;99.90;;;;;;4945752;28;20188;-54
2021/10/08 06:55:50;;;;;;;10.15;8.65;;;9.40;99.90;;;;;;4950489;28;20189;-54
2021/10/08 06:58:15;;;;;;;9.70;7.80;;;9.40;99.90;;;;;;4952787;28;20275;-56
2021/10/08 07:00:41;;;;;;;9.80;8.50;;;9.70;99.90;;;;;;4947533;28;20185;-52
2021/10/08 07:03:06;;;;;;;9.90;8.90;;;9.80;99.90;;;;;;4948465;28;20737;-56
2021/10/08 07:05:32;;;;;;;13.93;10.23;;;9.80;99.90;;;;;;4945856;28;20193;-57
2021/10/08 07:07:58;;;;;;;10.13;8.57;;;10.10;99.90;;;;;;4952494;28;20251;-55
2021/10/08 07:10:24;;;;;;;11.43;9.70;;;10.00;99.90;;;;;;4950916;28;20423;-55
2021/10/08 07:12:50;;;;;;;13.30;11.90;;;10.20;99.90;;;;;;4956728;28;20447;-55
2021/10/08 07:15:19;;;;;;;11.10;9.13;;;10.20;99.90;;;;;;4946080;28;20503;-55
2021/10/08 07:17:48;;;;;;;11.68;10.32;;;10.40;99.90;;;;;;4950627;28;20216;-56
2021/10/08 07:20:20;;;;;;;13.65;11.10;;;10.60;99.90;;;;;;4956480;28;20189;-55
2021/10/08 07:22:46;;;;;;;11.40;10.20;;;10.90;99.90;;;;;;4951007;28;20287;-55
2021/10/08 07:25:12;;;;;;;12.50;11.30;;;10.70;99.90;;;;;;4956168;28;20201;-54
2021/10/08 07:27:41;;;;;;;11.77;10.60;;;11.20;99.90;;;;;;4950130;28;20489;-55
2021/10/08 07:30:07;;;;;;;11.77;10.32;;;11.20;99.90;;;;;;4954640;28;20205;-55
2021/10/08 07:32:33;;;;;;;11.63;10.43;;;11.10;99.90;;;;;;4950647;28;20262;-55
2021/10/08 07:34:59;;;;;;;11.77;10.57;;;11.40;99.90;;;;;;4953142;28;20327;-54
2021/10/08 07:37:25;;;;;;;11.43;10.23;;;11.70;99.90;;;;;;4951419;29;20585;-54
2021/10/08 07:39:53;;;;;;;11.77;10.53;;;11.70;99.90;;;;;;4949926;28;20659;-53
2021/10/08 07:42:21;;;;;;;11.00;9.90;;;11.70;99.90;;;;;;4958389;28;20202;-54
2021/10/08 07:44:47;;;;;;;11.27;10.13;;;11.90;99.90;;;;;;4952846;28;20182;-54
2021/10/08 07:47:13;;;;;;;11.75;10.60;;;12.00;99.90;;;;;;4953291;28;20182;-54
2021/10/08 07:49:38;;;;;;;11.80;10.60;;;12.10;99.90;;;;;;4954475;28;20298;-54
2021/10/08 07:52:04;;;;;;;13.80;11.87;;;12.10;99.90;;;;;;4960290;28;20197;-56
2021/10/08 07:54:30;;;;;;;14.05;12.55;;;11.80;99.90;;;;;;4956769;28;20182;-54
2021/10/08 07:56:56;;;;;;;12.47;11.20;;;12.10;99.90;;;;;;4954126;28;20181;-54
2021/10/08 07:59:21;;;;;;;12.13;10.97;;;12.30;99.90;;;;;;4950279;28;20285;-53
2021/10/08 08:01:47;;;;;;;12.00;10.70;;;12.30;99.90;;;;;;4955684;28;20205;-53
2021/10/08 08:04:14;;;;;;;14.40;10.93;;;12.30;99.90;;;;;;4956145;28;20204;-54
2021/10/08 08:06:39;;;;;;;14.20;11.40;;;12.10;99.90;;;;;;4955011;28;20442;-53
2021/10/08 08:09:05;;;;;;;12.20;10.93;;;12.40;99.90;;;;;;4951274;28;20612;-54
2021/10/08 08:11:31;;;;;;;12.50;11.20;;;12.40;99.90;;;;;;4943690;28;20656;-54
2021/10/08 08:13:56;;;;;;;11.47;10.37;;;12.80;99.90;;;;;;4961857;28;20286;-55
2021/10/08 08:16:22;;;;;;;14.50;11.40;;;12.50;99.90;;;;;;4948277;28;20279;-54
2021/10/08 08:18:49;;;;;;;13.97;11.67;;;12.90;99.90;;;;;;4949802;29;20228;-55
2021/10/08 08:21:15;;;;;;;11.80;10.57;;;12.70;99.90;;;;;;4950889;28;20465;-55
2021/10/08 08:23:40;;;;;;;11.33;10.23;;;13.20;99.90;;;;;;4947104;28;20582;-54
2021/10/08 08:26:06;;;;;;;11.93;9.90;;;13.40;99.90;;;;;;4951081;28;20184;-54
2021/10/08 08:28:32;;;;;;;11.73;10.53;;;13.70;99.90;;;;;;4953142;28;20497;-55
2021/10/08 08:30:58;;;;;;;10.93;9.90;;;13.80;99.90;;;;;;4952208;28;20189;-54
2021/10/08 08:33:23;;;;;;;11.37;10.27;;;14.00;99.90;;;;;;4955851;28;20186;-54
2021/10/08 08:35:49;;;;;;;11.53;10.53;;;14.10;99.90;;;;;;4946778;28;20208;-54
2021/10/08 08:38:15;;;;;;;13.00;10.30;;;14.10;99.90;;;;;;4950037;28;20587;-55
2021/10/08 08:40:41;;;;;;;11.67;10.57;;;14.10;99.90;;;;;;4948520;28;20185;-53
2021/10/08 08:43:06;;;;;;;13.47;9.83;;;13.90;99.90;;;;;;4953530;28;20215;-55
2021/10/08 08:45:33;;;;;;;13.83;9.57;;;14.10;99.90;;;;;;4951296;28;20193;-54
2021/10/08 08:48:07;;;;;;;12.82;10.98;;;14.20;99.90;;;;;;4962007;28;20283;-54
2021/10/08 08:50:37;;;;;;;12.25;10.98;;;14.60;99.90;;;;;;4956348;28;20288;-54
2021/10/08 08:53:03;;;;;;;11.32;10.07;;;14.60;99.90;;;;;;4949028;28;20185;-55
2021/10/08 08:55:28;;;;;;;12.20;9.15;;;14.90;99.90;;;;;;4952127;28;20215;-54
2021/10/08 08:57:54;;;;;;;10.83;9.77;;;14.70;99.90;;;;;;4954309;28;20688;-55
2021/10/08 09:00:22;;;;;;;11.87;10.57;;;15.10;99.90;;;;;;4952463;28;20184;-54
2021/10/08 09:02:57;;;;;;;13.18;9.90;;;14.80;99.90;;;;;;4958227;28;20343;-54
2021/10/08 09:05:29;;;;;;;11.40;10.20;;;14.70;99.90;;;;;;4952388;28;20658;-55
2021/10/08 09:08:06;;;;;;;11.70;10.50;;;15.10;99.90;;;;;;4952062;28;20205;-54
2021/10/08 09:10:39;;;;;;;11.70;9.95;;;14.90;99.90;;;;;;4947985;28;20181;-56
2021/10/08 09:13:05;;;;;;;11.00;10.00;;;15.20;99.90;;;;;;4951210;28;20243;-55
2021/10/08 09:15:43;;;;;;;12.40;11.18;;;15.30;99.90;;;;;;4951286;28;20185;-55
2021/10/08 09:18:12;;;;;;;11.07;9.85;;;14.60;99.90;;;;;;4952690;28;20218;-55
2021/10/08 09:20:38;;;;;;;12.30;11.10;;;14.60;99.90;;;;;;4951511;28;20626;-54
2021/10/08 09:23:06;;;;;;;10.60;9.60;;;15.00;99.90;;;;;;4954287;28;20709;-54
2021/10/08 09:25:34;;;;;;;10.57;9.50;;;14.90;99.90;;;;;;4948143;28;20205;-54
2021/10/08 09:28:06;;;;;;;10.23;9.20;;;15.00;99.90;;;;;;4955043;28;20212;-54
2021/10/08 09:30:35;;;;;;;10.38;9.48;;;15.00;99.90;;;;;;4948567;28;20262;-54
2021/10/08 09:33:00;;;;;;;11.75;9.63;;;15.00;99.90;;;;;;4951246;28;20538;-54
2021/10/08 09:35:26;;;;;;;11.23;10.03;;;15.30;99.90;;;;;;4951855;28;20195;-53
2021/10/08 09:37:59;;;;;;;10.43;9.27;;;15.20;99.90;;;;;;4954333;28;20643;-55
2021/10/08 09:40:34;;;;;;;12.55;10.98;;;15.50;99.90;;;;;;4948907;28;20205;-55
2021/10/08 09:43:12;;;;;;;12.63;9.30;;;15.40;99.90;;;;;;4953835;28;20220;-52
2021/10/08 09:45:51;;;;;;;11.02;9.65;;;15.50;99.90;;;;;;4950946;28;20594;-56
2021/10/08 09:48:18;;;;;;;10.48;9.50;;;15.70;99.90;;;;;;4952486;28;20235;-53
2021/10/08 09:50:57;;;;;;;9.95;8.98;;;15.30;99.90;;;;;;4953247;28;20192;-54
2021/10/08 09:53:22;;;;;;;10.35;9.23;;;15.60;99.90;;;;;;4952160;28;20192;-54
2021/10/08 09:55:48;;;;;;;10.67;9.63;;;15.30;99.90;;;;;;4952403;28;20196;-56
2021/10/08 09:58:14;;;;;;;11.93;10.73;;;15.40;99.90;;;;;;4948493;29;20467;-53
2021/10/08 10:00:47;;;;;;;10.23;9.30;;;15.50;99.90;;;;;;4949746;28;20185;-54
2021/10/08 10:03:15;;;;;;;11.13;10.02;;;15.50;99.90;;;;;;4952406;28;20664;-55
2021/10/08 10:05:41;;;;;;;11.38;10.18;;;15.80;99.90;;;;;;4949094;29;20211;-53
2021/10/08 10:08:08;;;;;;;9.90;9.00;;;15.70;99.90;;;;;;4949729;28;20220;-53
2021/10/08 10:10:36;;;;;;;10.38;9.32;;;15.80;99.90;;;;;;4951576;28;20188;-54
2021/10/08 10:13:04;;;;;;;10.32;9.32;;;15.60;99.90;;;;;;4942968;28;20289;-53
2021/10/08 10:15:30;;;;;;;9.88;8.90;;;15.60;99.90;;;;;;4947526;28;20689;-53
2021/10/08 10:18:03;;;;;;;9.75;8.85;;;15.90;99.90;;;;;;4947244;28;20335;-54
2021/10/08 10:20:36;;;;;;;12.38;11.18;;;15.70;99.90;;;;;;4947412;28;20189;-54
2021/10/08 10:23:07;;;;;;;10.05;9.05;;;15.80;99.90;;;;;;4945316;28;20217;-54
2021/10/08 10:25:40;;;;;;;13.25;9.43;;;15.80;99.90;;;;;;4950691;28;20188;-54
2021/10/08 10:28:06;;;;;;;9.65;8.70;;;16.10;99.90;;;;;;4950075;28;20212;-53
2021/10/08 10:30:33;;;;;;;9.88;8.88;;;16.20;99.90;;;;;;4938885;28;20185;-53
2021/10/08 10:33:01;;;;;;;10.68;9.55;;;15.80;99.90;;;;;;4950497;29;20197;-54
2021/10/08 10:36:10;;;;;;;9.70;8.68;;;16.10;99.90;;;;;;4947743;28;20276;-53
2021/10/08 10:38:38;;;;;;;10.13;9.00;;;16.30;99.90;;;;;;4934493;28;20221;-53
2021/10/08 10:41:09;;;;;;;10.70;8.63;;;15.90;99.90;;;;;;4949065;29;20196;-53
2021/10/08 10:43:44;;;;;;;10.30;9.15;;;16.40;99.90;;;;;;4948684;28;20585;-53
2021/10/08 10:46:40;;;;;;;10.63;9.20;;;16.40;99.90;;;;;;4948623;28;20180;-53
2021/10/08 10:52:11;;;;;;;13.10;9.15;;;16.60;99.90;;;;;;4940660;29;20182;-53
2021/10/08 10:57:06;;;;;;;13.63;9.25;;;15.70;99.90;;;;;;4945882;28;20189;-53
2021/10/08 10:59:33;;;;;;;9.52;8.65;;;15.60;99.90;;;;;;4937804;28;20217;-54
2021/10/08 11:02:23;;;;;;;11.00;9.55;;;16.10;99.90;;;;;;4944801;29;20300;-55
2021/10/08 11:04:54;;;;;;;10.70;9.60;;;16.30;99.90;;;;;;4954776;29;20210;-54
2021/10/08 11:07:23;;;;;;;9.60;8.70;;;16.80;99.90;;;;;;4954481;29;20218;-54
2021/10/08 11:10:04;;;;;;;9.43;8.63;;;16.40;99.90;;;;;;4952297;28;20240;-54
2021/10/08 11:12:41;;;;;;;10.05;9.05;;;16.70;99.90;;;;;;4942165;29;20212;-54
2021/10/08 11:17:58;;;;;;;8.65;7.75;;;16.90;99.90;;;;;;4950579;29;20192;-53
2021/10/08 11:20:30;;;;;;;9.23;8.43;;;16.90;99.90;;;;;;4954242;29;20178;-54
2021/10/08 11:22:58;;;;;;;9.60;8.60;;;17.00;99.90;;;;;;4951283;29;20222;-54
2021/10/08 11:25:24;;;;;;;9.80;8.80;;;17.00;99.90;;;;;;4953247;29;20681;-54
2021/10/08 11:27:51;;;;;;;9.30;8.40;;;17.00;99.90;;;;;;4955053;29;20231;-54
2021/10/08 11:30:17;;;;;;;9.30;8.23;;;16.80;99.90;;;;;;4950585;28;20205;-54
2021/10/08 11:32:51;;;;;;;10.00;9.05;;;16.80;99.90;;;;;;4954322;28;20276;-54
2021/10/08 11:35:27;;;;;;;9.52;8.65;;;16.60;99.90;;;;;;4954486;28;20717;-53
2021/10/08 11:37:53;;;;;;;12.02;9.95;;;16.30;99.90;;;;;;4950269;29;20652;-53
2021/10/08 11:40:33;;;;;;;11.97;10.13;;;16.40;99.90;;;;;;4954174;28;20207;-54
2021/10/08 11:43:10;;;;;;;10.07;9.07;;;16.70;99.90;;;;;;4945173;28;20584;-54
2021/10/08 11:45:57;;;;;;;9.35;8.30;;;17.00;99.90;;;;;;4949748;28;20192;-53
2021/10/08 11:48:31;;;;;;;12.05;8.77;;;16.90;99.90;;;;;;4953306;29;20209;-54
2021/10/08 11:51:06;;;;;;;9.55;8.43;;;17.00;99.90;;;;;;4952978;28;20220;-54
2021/10/08 11:53:52;;;;;;;9.25;8.25;;;16.90;99.90;;;;;;4948126;28;20710;-53
2021/10/08 11:56:27;;;;;;;9.35;8.45;;;16.80;99.90;;;;;;4953643;29;20188;-53
2021/10/08 11:59:15;;;;;;;9.73;8.80;;;16.80;99.90;;;;;;4952833;28;20215;-53
2021/10/08 12:01:41;;;;;;;9.30;8.40;;;16.60;99.90;;;;;;4949929;29;20197;-53
2021/10/08 12:04:18;;;;;;;11.32;10.23;;;16.70;99.90;;;;;;4954267;29;20188;-53
2021/10/08 12:06:44;;;;;;;10.02;8.98;;;16.50;99.90;;;;;;4954147;28;20674;-54
2021/10/08 12:09:21;;;;;;;10.35;9.30;;;16.50;99.90;;;;;;4947264;28;20205;-54
2021/10/08 12:11:47;;;;;;;9.77;8.88;;;16.70;99.90;;;;;;4956963;28;20178;-54
2021/10/08 12:14:12;;;;;;;10.00;8.87;;;16.20;99.90;;;;;;4948382;28;20265;-55
2021/10/08 12:16:48;;;;;;;12.60;9.33;;;16.60;99.90;;;;;;4948880;29;20845;-55
2021/10/08 12:19:15;;;;;;;9.13;8.23;;;16.70;99.90;;;;;;4952004;28;20258;-55
2021/10/08 12:21:41;;;;;;;10.13;8.52;;;16.70;99.90;;;;;;4953350;28;20261;-54
2021/10/08 12:24:17;;;;;;;10.63;9.30;;;16.70;99.90;;;;;;4952316;28;20565;-55
2021/10/08 12:27:06;;;;;;;11.68;9.98;;;16.50;99.90;;;;;;4941622;29;20208;-54
2021/10/08 12:29:42;;;;;;;11.02;8.75;;;16.50;99.90;;;;;;4948577;29;20209;-54
2021/10/08 12:32:11;;;;;;;10.90;9.80;;;16.60;99.90;;;;;;4944835;29;20199;-54
2021/10/08 12:34:41;;;;;;;10.73;9.75;;;16.60;99.90;;;;;;4942739;29;20185;-55
2021/10/08 12:37:10;;;;;;;9.73;8.68;;;16.70;99.90;;;;;;4953479;28;20189;-55
2021/10/08 12:39:39;;;;;;;10.85;9.07;;;16.80;99.90;;;;;;4950409;29;20200;-54
2021/10/08 12:42:19;;;;;;;10.95;9.30;;;16.80;99.90;;;;;;4946546;28;20295;-54
2021/10/08 12:44:48;;;;;;;9.85;8.50;;;16.90;99.90;;;;;;4949447;28;20213;-55
2021/10/08 12:49:43;;;;;;;11.17;9.43;;;16.80;99.90;;;;;;4952895;28;20711;-54
2021/10/08 12:52:09;;;;;;;11.23;9.20;;;16.70;99.90;;;;;;4947316;28;20303;-55
2021/10/08 12:54:34;;;;;;;9.73;8.87;;;16.90;99.90;;;;;;4952179;29;20645;-55
2021/10/08 12:57:14;;;;;;;11.93;9.43;;;16.90;99.90;;;;;;4952363;29;20185;-54
2021/10/08 12:59:55;;;;;;;9.38;8.48;;;17.00;99.90;;;;;;4952092;28;20241;-54